Diosdado Macapagal International Airport
RPLC : now visible

Airfield :











YOU CAN JOIN US ON...

 
LOGIN :

Register | Disclaimer

   EN    FR    IT 

 









Legend :    VFR   Marginal VFR   IFR   Intensive IFR   Very Intensive IFR
Visi :
Ceiling :
>= 8 km
>= 3000ft
5 to 8 km
1000 to 3000 ft
1500m to 5 km
500 to 1000 ft
800 to 1500m
200 to 500 ft
< 800m
< 200 ft
Symbols :   Thunderstorms  Fog  Heavy snow  Heavy precipitations  Wind > 20 kt






- Airport Elevation : 484 ft
- IATA code : CRK


RPLC - Diosdado Macapagal International

CURRENT METAR :
  • 151800Z 30002KT 8000 SCT020 BKN100 26/23 Q1010 NOSIG RMK A2983

EXPIRED METARs :
  • 151700Z 20002KT 8000 SCT020 BKN300 26/24 Q1010 NOSIG RMK A2983
  • 151600Z 14002KT 8000 FEW020 BKN300 27/23 Q1011 NOSIG RMK A2985

TAF TAF RPLC
Valid from the 15 at 18:00 until the 17 at 00:00 UTC


151700Z 1518/1624 27005KT 9999 FEW020 BKN300 TX33/1606Z TN24/1522Z
TEMPO 1518/1524 32004KT FEW020 BKN100



MET'MAP, your aeronautical weather chart ! - Copyright ORBIFLY December 2007 - Disclaimer

ORBIFLY MET'MAP TEAM :

Programming & Development : Alexandra Zaïnal
Concept & Development : Baudouin d'Aumeries
Co-Development & Prog : Marc-Olivier Méhu
Technical & hardware support : Manuel Goepfert

Contact : metmap@orbifly.com




SOURCES & CREDITS :

   NOAA       Earth
Advisory